createdAt,value
2018-10-16T00:01:30.534Z,68.31
2018-10-16T00:04:02.839Z,67.65
2018-10-16T00:06:35.100Z,67.83
2018-10-16T00:09:08.765Z,68.49
2018-10-16T00:11:52.385Z,68.60
2018-10-16T00:14:24.617Z,69.30
2018-10-16T00:16:57.042Z,68.96
2018-10-16T00:19:30.017Z,68.67
2018-10-16T00:22:02.828Z,68.82
2018-10-16T00:24:35.077Z,68.33
2018-10-16T00:27:07.381Z,68.79
2018-10-16T00:29:39.648Z,68.79
2018-10-16T00:32:11.898Z,68.81
2018-10-16T00:34:44.162Z,68.70
2018-10-16T00:37:16.429Z,68.80
2018-10-16T00:39:48.704Z,68.72
2018-10-16T00:42:20.980Z,68.71
2018-10-16T00:44:53.234Z,68.56
2018-10-16T00:47:25.565Z,68.92
2018-10-16T00:49:57.944Z,68.54
2018-10-16T00:52:30.228Z,68.99
2018-10-16T00:55:02.544Z,69.45
2018-10-16T00:57:35.393Z,69.47
2018-10-16T01:00:08.761Z,68.86
2018-10-16T01:02:42.215Z,68.93
2018-10-16T01:05:14.501Z,69.42
2018-10-16T01:07:46.753Z,68.87
2018-10-16T01:10:19.083Z,69.15
2018-10-16T01:12:51.382Z,69.62
2018-10-16T01:15:23.726Z,69.38
2018-10-16T01:17:56.020Z,68.87
2018-10-16T01:20:29.644Z,69.52
2018-10-16T01:23:01.887Z,69.22
2018-10-16T01:25:34.164Z,69.56
2018-10-16T01:28:06.402Z,69.17
2018-10-16T01:30:38.692Z,69.08
2018-10-16T01:33:11.060Z,69.90
2018-10-16T01:35:43.325Z,69.45
2018-10-16T01:38:15.661Z,69.76
2018-10-16T01:40:47.960Z,69.89
2018-10-16T01:43:20.381Z,70.61
2018-10-16T01:45:52.837Z,70.10
2018-10-16T01:48:25.107Z,70.33
2018-10-16T01:50:57.482Z,70.29
2018-10-16T01:53:29.869Z,71.01
2018-10-16T01:56:02.397Z,70.95
2018-10-16T01:58:34.662Z,70.83
2018-10-16T02:01:07.001Z,70.37
2018-10-16T02:03:39.287Z,70.25
2018-10-16T02:06:11.550Z,69.32
2018-10-16T02:08:43.857Z,69.63
2018-10-16T02:11:16.233Z,70.01
2018-10-16T02:13:48.498Z,70.17
2018-10-16T02:16:20.898Z,70.63
2018-10-16T02:18:53.235Z,71.26
2018-10-16T02:21:25.518Z,71.95
2018-10-16T02:23:57.768Z,71.56
2018-10-16T02:26:30.089Z,71.71
2018-10-16T02:29:02.453Z,71.58
2018-10-16T02:31:34.802Z,70.87
2018-10-16T02:34:07.066Z,70.95
2018-10-16T02:36:39.386Z,71.51
2018-10-16T02:39:11.789Z,72.05
2018-10-16T02:41:44.123Z,70.83
2018-10-16T02:44:16.392Z,71.57
2018-10-16T02:46:48.629Z,72.14
2018-10-16T02:49:20.921Z,72.23
2018-10-16T02:51:53.177Z,73.29
2018-10-16T02:54:25.573Z,72.56
2018-10-16T02:56:57.838Z,72.65
2018-10-16T02:59:30.137Z,73.39
2018-10-16T03:02:02.448Z,73.60
2018-10-16T03:04:34.942Z,73.30
2018-10-16T03:07:07.441Z,73.09
2018-10-16T03:09:39.767Z,73.74
2018-10-16T03:12:12.045Z,74.06
2018-10-16T03:14:44.314Z,73.02
2018-10-16T03:17:16.656Z,73.79
2018-10-16T03:19:49.003Z,73.69
2018-10-16T03:22:21.359Z,72.68
2018-10-16T03:24:53.617Z,72.67
2018-10-16T03:27:25.877Z,72.05
2018-10-16T03:29:58.158Z,71.81
2018-10-16T03:32:30.575Z,71.71
2018-10-16T03:35:02.950Z,70.65
2018-10-16T03:37:35.585Z,70.71
2018-10-16T03:40:08.856Z,70.72
2018-10-16T03:42:41.823Z,71.05
2018-10-16T03:45:14.089Z,71.08
2018-10-16T03:47:46.452Z,70.86
2018-10-16T03:50:18.670Z,71.05
2018-10-16T03:52:51.011Z,71.91
2018-10-16T03:55:23.403Z,71.70
2018-10-16T03:57:55.885Z,71.80
2018-10-16T04:00:28.245Z,71.49
2018-10-16T04:03:00.637Z,71.39
2018-10-16T04:05:32.947Z,72.14
2018-10-16T04:08:05.454Z,72.16
2018-10-16T04:10:37.780Z,72.23
2018-10-16T04:13:10.045Z,72.40
2018-10-16T04:15:42.289Z,73.22
2018-10-16T04:18:14.557Z,73.32
2018-10-16T04:20:46.901Z,73.27
2018-10-16T04:23:19.157Z,72.69
2018-10-16T04:25:51.469Z,72.55
2018-10-16T04:28:23.768Z,73.37
2018-10-16T04:30:56.385Z,73.23
2018-10-16T04:33:28.667Z,73.81
2018-10-16T04:36:00.961Z,73.72
2018-10-16T04:38:33.368Z,74.27
2018-10-16T04:41:05.647Z,74.33
2018-10-16T04:43:38.013Z,74.41
2018-10-16T04:46:10.229Z,74.96
2018-10-16T04:48:42.521Z,75.46
2018-10-16T04:51:14.837Z,75.24
2018-10-16T04:53:47.101Z,75.71
2018-10-16T04:56:19.369Z,75.58
2018-10-16T04:58:51.782Z,75.33
2018-10-16T05:01:24.101Z,75.99
2018-10-16T05:03:56.442Z,77.02
2018-10-16T05:06:28.701Z,76.80
2018-10-16T05:09:01.027Z,76.83
2018-10-16T05:11:34.244Z,76.45
2018-10-16T05:14:06.522Z,76.38
2018-10-16T05:16:38.793Z,77.06
2018-10-16T05:19:11.482Z,76.60
2018-10-16T05:21:43.730Z,76.91
2018-10-16T05:24:16.120Z,76.66
2018-10-16T05:26:48.429Z,76.07
2018-10-16T05:29:20.719Z,76.70
2018-10-16T05:31:53.040Z,76.33
2018-10-16T05:34:25.353Z,76.33
2018-10-16T05:36:57.626Z,76.25
2018-10-16T05:39:29.886Z,76.83
2018-10-16T05:42:02.229Z,76.35
2018-10-16T05:44:34.623Z,76.88
2018-10-16T05:47:07.017Z,76.26
2018-10-16T05:49:39.323Z,76.35
2018-10-16T05:52:11.625Z,76.09
2018-10-16T05:54:43.890Z,76.02
2018-10-16T05:57:16.224Z,75.86
2018-10-16T05:59:48.678Z,76.12
2018-10-16T06:02:20.941Z,75.56
2018-10-16T06:04:53.250Z,76.60
2018-10-16T06:07:25.662Z,75.81
2018-10-16T06:09:58.084Z,75.76
2018-10-16T06:12:30.553Z,75.70
2018-10-16T06:15:03.381Z,75.89
2018-10-16T06:17:36.029Z,75.48
2018-10-16T06:20:10.789Z,74.68
2018-10-16T06:22:43.283Z,73.38
2018-10-16T06:25:15.604Z,73.36
2018-10-16T06:27:47.916Z,72.23
2018-10-16T06:30:20.288Z,71.18
2018-10-16T06:32:52.533Z,69.43
2018-10-16T06:35:24.837Z,68.91
2018-10-16T06:37:57.125Z,68.50
2018-10-16T06:40:29.463Z,67.09
2018-10-16T06:43:01.818Z,66.09
2018-10-16T06:45:34.451Z,66.50
2018-10-16T06:50:39.513Z,64.86
2018-10-16T06:53:11.998Z,64.84
2018-10-16T06:55:44.432Z,64.60
2018-10-16T06:58:16.825Z,63.83
2018-10-16T07:00:49.349Z,63.00
2018-10-16T07:03:21.899Z,62.39
2018-10-16T07:05:54.382Z,63.04
2018-10-16T07:08:26.869Z,61.64
2018-10-16T07:10:59.186Z,61.85
2018-10-16T07:13:31.434Z,60.71
2018-10-16T07:16:04.141Z,60.25
2018-10-16T07:18:36.379Z,60.39
2018-10-16T07:21:08.768Z,58.78
2018-10-16T07:23:41.047Z,58.42
2018-10-16T07:26:13.326Z,57.30
2018-10-16T07:28:45.589Z,57.22
2018-10-16T07:31:18.045Z,56.93
2018-10-16T07:33:50.453Z,55.92
2018-10-16T07:36:22.818Z,56.41
2018-10-16T07:38:55.307Z,56.58
2018-10-16T07:41:27.485Z,56.16
2018-10-16T07:43:59.794Z,55.67
2018-10-16T07:46:32.089Z,55.83
2018-10-16T07:49:04.918Z,55.37
2018-10-16T07:51:37.456Z,55.10
2018-10-16T07:54:09.760Z,54.60
2018-10-16T07:56:42.130Z,54.33
2018-10-16T07:59:14.497Z,53.98
2018-10-16T08:01:46.941Z,53.46
2018-10-16T08:04:19.458Z,53.74
2018-10-16T08:06:51.807Z,53.27
2018-10-16T08:09:24.226Z,53.68
2018-10-16T08:11:56.670Z,52.80
2018-10-16T08:14:29.021Z,53.04
2018-10-16T08:17:01.335Z,53.06
2018-10-16T08:19:34.042Z,52.26
2018-10-16T08:22:06.361Z,52.01
2018-10-16T08:24:38.727Z,51.99
2018-10-16T08:27:11.291Z,51.72
2018-10-16T08:29:43.573Z,51.40
2018-10-16T08:32:15.965Z,51.41
2018-10-16T08:34:48.262Z,51.41
2018-10-16T08:37:31.945Z,50.12
2018-10-16T08:40:05.323Z,49.98
2018-10-16T08:43:23.504Z,49.75
2018-10-16T08:46:07.529Z,49.23
2018-10-16T08:48:51.185Z,49.29
2018-10-16T08:51:33.366Z,50.28
2018-10-16T08:54:05.925Z,48.99
2018-10-16T08:56:38.334Z,49.76
2018-10-16T08:59:10.790Z,48.01
2018-10-16T09:01:43.204Z,47.65
2018-10-16T09:04:15.658Z,48.50
2018-10-16T09:06:47.990Z,47.46
2018-10-16T09:09:20.338Z,47.57
2018-10-16T09:11:52.725Z,47.19
2018-10-16T09:14:24.996Z,45.95
2018-10-16T09:16:57.291Z,46.47
2018-10-16T09:19:29.675Z,45.89
2018-10-16T09:22:01.993Z,45.76
2018-10-16T09:24:34.255Z,46.25
2018-10-16T09:27:06.574Z,45.44
2018-10-16T09:29:38.984Z,45.50
2018-10-16T09:32:11.257Z,45.58
2018-10-16T09:34:43.549Z,44.78
2018-10-16T09:37:15.982Z,45.33
2018-10-16T09:39:48.301Z,45.39
2018-10-16T09:42:20.804Z,44.43
2018-10-16T09:44:53.230Z,44.14
2018-10-16T09:47:25.505Z,43.64
2018-10-16T09:49:57.936Z,43.61
2018-10-16T09:52:30.261Z,43.45
2018-10-16T09:55:02.584Z,43.67
2018-10-16T09:57:34.866Z,42.94
2018-10-16T10:01:19.278Z,43.39
2018-10-16T10:03:51.577Z,43.64
2018-10-16T10:06:23.886Z,42.96
2018-10-16T10:08:56.215Z,43.26
2018-10-16T10:11:28.854Z,42.98
2018-10-16T10:14:01.175Z,41.90
2018-10-16T10:16:33.406Z,41.65
2018-10-16T10:19:05.791Z,41.15
2018-10-16T10:21:38.099Z,40.57
2018-10-16T10:24:10.412Z,39.55
2018-10-16T10:26:42.692Z,39.30
2018-10-16T10:29:15.012Z,39.71
2018-10-16T10:31:47.292Z,40.94
2018-10-16T10:34:19.589Z,41.25
2018-10-16T10:36:51.894Z,40.98
2018-10-16T10:39:24.347Z,41.17
2018-10-16T10:41:56.757Z,40.80
2018-10-16T10:44:29.102Z,40.96
2018-10-16T10:47:01.536Z,40.30
2018-10-16T10:49:33.985Z,40.25
2018-10-16T10:52:06.373Z,40.16
2018-10-16T10:54:38.722Z,40.66
2018-10-16T10:57:11.342Z,41.29
2018-10-16T10:59:43.485Z,40.73
2018-10-16T11:02:15.785Z,40.50
2018-10-16T11:04:48.070Z,40.20
2018-10-16T11:07:20.377Z,40.08
2018-10-16T11:09:52.674Z,39.51
2018-10-16T11:12:25.074Z,39.51
2018-10-16T11:14:57.371Z,40.05
2018-10-16T11:17:29.826Z,39.30
2018-10-16T11:20:02.175Z,38.97
2018-10-16T11:22:34.633Z,38.46
2018-10-16T11:25:08.099Z,38.93
2018-10-16T11:27:40.498Z,38.83
2018-10-16T11:30:14.147Z,38.40
2018-10-16T11:32:46.632Z,38.31
2018-10-16T11:35:18.902Z,38.47
2018-10-16T11:37:51.163Z,37.45
2018-10-16T11:40:23.457Z,37.71
2018-10-16T11:42:55.749Z,37.18
2018-10-16T11:45:28.086Z,37.76
2018-10-16T11:48:00.561Z,36.67
2018-10-16T11:50:32.853Z,38.16
2018-10-16T11:53:05.361Z,36.54
2018-10-16T11:55:37.709Z,35.78
2018-10-16T11:58:09.966Z,35.67
2018-10-16T12:00:42.265Z,35.62
2018-10-16T12:03:14.536Z,36.00
2018-10-16T12:05:46.858Z,35.44
2018-10-16T12:08:19.089Z,35.10
2018-10-16T12:10:51.469Z,35.20
2018-10-16T12:13:23.713Z,36.04
2018-10-16T12:15:56.023Z,36.43
2018-10-16T12:18:34.022Z,35.61
2018-10-16T12:21:23.867Z,34.84
2018-10-16T12:23:56.227Z,35.21
2018-10-16T12:26:28.481Z,35.77
2018-10-16T12:29:00.771Z,35.27
2018-10-16T12:31:33.161Z,34.73
2018-10-16T12:34:05.429Z,35.05
2018-10-16T12:36:37.817Z,34.60
2018-10-16T12:39:10.268Z,35.43
2018-10-16T12:41:42.600Z,34.69
2018-10-16T12:44:14.985Z,35.48
2018-10-16T12:46:47.337Z,35.82
2018-10-16T12:49:19.831Z,35.24
2018-10-16T12:51:52.085Z,35.07
2018-10-16T12:54:24.357Z,34.85
2018-10-16T12:56:56.773Z,35.38
2018-10-16T12:59:29.874Z,35.40
2018-10-16T13:02:02.176Z,35.68
2018-10-16T13:04:34.456Z,35.18
2018-10-16T13:07:11.353Z,35.00
2018-10-16T13:09:43.645Z,35.69
2018-10-16T13:12:15.890Z,35.58
2018-10-16T13:14:48.196Z,34.50
2018-10-16T13:17:20.498Z,35.07
2018-10-16T13:19:52.929Z,35.21
2018-10-16T13:22:25.349Z,35.37
2018-10-16T13:24:57.865Z,35.63
2018-10-16T13:27:30.130Z,33.99
2018-10-16T13:30:02.540Z,34.71
2018-10-16T13:32:34.711Z,34.29
2018-10-16T13:35:08.920Z,35.50
2018-10-16T13:37:41.318Z,34.27
2018-10-16T13:40:13.760Z,33.86
2018-10-16T13:42:46.214Z,35.10
2018-10-16T13:45:18.447Z,34.90
2018-10-16T13:47:50.751Z,35.02
2018-10-16T13:50:23.119Z,34.46
2018-10-16T13:52:55.512Z,34.32
2018-10-16T13:55:28.053Z,35.20
2018-10-16T13:58:00.523Z,34.69
2018-10-16T14:00:32.906Z,34.57
2018-10-16T14:03:05.232Z,34.27
2018-10-16T14:05:37.701Z,34.62
2018-10-16T14:08:10.083Z,34.41
2018-10-16T14:10:42.267Z,33.90
2018-10-16T14:13:14.599Z,34.50
2018-10-16T14:15:46.877Z,34.84
2018-10-16T14:18:19.216Z,34.26
2018-10-16T14:20:51.610Z,34.37
2018-10-16T14:23:24.861Z,33.81
2018-10-16T14:25:57.374Z,34.30
2018-10-16T14:28:29.948Z,34.17
2018-10-16T14:31:02.229Z,34.53
2018-10-16T14:33:34.617Z,34.96
2018-10-16T14:36:06.928Z,33.56
2018-10-16T14:38:39.264Z,33.50
2018-10-16T14:41:11.563Z,34.58
2018-10-16T14:43:43.920Z,34.15
2018-10-16T14:46:16.315Z,34.63
2018-10-16T14:48:48.714Z,34.74
2018-10-16T14:51:21.131Z,34.81
2018-10-16T14:53:53.458Z,35.06
2018-10-16T14:56:26.034Z,35.05
2018-10-16T14:58:58.664Z,35.56
2018-10-16T15:01:30.954Z,35.54
2018-10-16T15:04:03.422Z,35.59
2018-10-16T15:06:35.709Z,36.35
2018-10-16T15:09:08.910Z,35.93
2018-10-16T15:11:41.215Z,37.18
2018-10-16T15:14:13.570Z,37.50
2018-10-16T15:16:46.016Z,37.08
2018-10-16T15:19:18.353Z,38.07
2018-10-16T15:21:50.917Z,38.43
2018-10-16T15:24:23.405Z,37.56
2018-10-16T15:26:55.858Z,37.57
2018-10-16T15:29:28.250Z,38.07
2018-10-16T15:32:00.641Z,38.88
2018-10-16T15:34:32.885Z,38.36
2018-10-16T15:37:05.814Z,39.00
2018-10-16T15:39:38.113Z,39.17
2018-10-16T15:42:10.661Z,39.60
2018-10-16T15:44:43.168Z,40.52
2018-10-16T15:47:15.522Z,41.13
2018-10-16T15:49:47.821Z,41.10
2018-10-16T15:52:20.180Z,42.49
2018-10-16T15:54:52.506Z,42.55
2018-10-16T15:57:24.925Z,43.78
2018-10-16T15:59:57.321Z,43.76
2018-10-16T16:02:29.770Z,43.84
2018-10-16T16:05:02.074Z,43.87
2018-10-16T16:07:34.430Z,44.39
2018-10-16T16:10:08.744Z,45.39
2018-10-16T16:12:41.213Z,45.20
2018-10-16T16:15:13.953Z,46.28
2018-10-16T16:17:46.449Z,46.74
2018-10-16T16:20:19.061Z,47.13
2018-10-16T16:22:51.488Z,47.87
2018-10-16T16:25:23.902Z,48.24
2018-10-16T16:27:56.266Z,47.74
2018-10-16T16:30:28.667Z,47.85
2018-10-16T16:33:01.140Z,48.17
2018-10-16T16:35:33.559Z,49.12
2018-10-16T16:38:06.065Z,48.71
2018-10-16T16:40:38.450Z,49.61
2018-10-16T16:43:10.952Z,50.14
2018-10-16T16:45:43.532Z,50.36
2018-10-16T16:48:15.824Z,51.07
2018-10-16T16:50:48.257Z,51.51
2018-10-16T16:53:20.834Z,51.73
2018-10-16T16:55:53.331Z,51.76
2018-10-16T16:58:25.778Z,51.97
2018-10-16T17:00:58.346Z,52.23
2018-10-16T17:03:30.778Z,52.23
2018-10-16T17:06:03.307Z,53.16
2018-10-16T17:08:35.738Z,53.23
2018-10-16T17:11:08.123Z,53.35
2018-10-16T17:13:40.430Z,54.07
2018-10-16T17:16:12.957Z,54.33
2018-10-16T17:18:45.202Z,54.39
2018-10-16T17:21:17.533Z,54.02
2018-10-16T17:23:49.979Z,54.62
2018-10-16T17:26:22.417Z,54.67
2018-10-16T17:28:54.810Z,54.07
2018-10-16T17:31:27.246Z,55.06
2018-10-16T17:36:43.214Z,54.86
2018-10-16T17:39:15.706Z,54.06
2018-10-16T17:41:48.154Z,54.55
2018-10-16T17:44:20.538Z,55.23
2018-10-16T17:46:53.085Z,55.31
2018-10-16T17:49:25.654Z,55.78
2018-10-16T17:51:58.051Z,55.14
2018-10-16T17:54:30.389Z,55.79
2018-10-16T17:57:02.844Z,55.94
2018-10-16T17:59:35.244Z,55.83
2018-10-16T18:02:07.648Z,56.71
2018-10-16T18:04:40.113Z,56.59
2018-10-16T18:07:12.513Z,57.16
2018-10-16T18:09:44.875Z,57.09
2018-10-16T18:12:17.264Z,56.92
2018-10-16T18:14:49.910Z,57.31
2018-10-16T18:17:22.439Z,57.34
2018-10-16T18:19:55.057Z,57.67
2018-10-16T18:22:27.491Z,56.60
2018-10-16T18:25:00.067Z,56.61
2018-10-16T18:27:32.404Z,57.51
2018-10-16T18:30:05.758Z,57.46
2018-10-16T18:32:38.421Z,57.92
2018-10-16T18:35:10.998Z,58.01
2018-10-16T18:37:43.830Z,57.89
2018-10-16T18:40:16.192Z,58.08
2018-10-16T18:42:48.562Z,58.41
2018-10-16T18:45:20.950Z,58.23
2018-10-16T18:47:53.360Z,58.27
2018-10-16T18:50:25.867Z,58.13
2018-10-16T18:52:58.373Z,58.72
2018-10-16T18:55:30.783Z,59.08
2018-10-16T18:58:03.227Z,59.61
2018-10-16T19:00:35.903Z,59.17
2018-10-16T19:03:08.315Z,59.27
2018-10-16T19:05:40.657Z,59.79
2018-10-16T19:08:13.057Z,59.83
2018-10-16T19:10:45.421Z,60.07
2018-10-16T19:13:17.787Z,60.42
2018-10-16T19:15:50.140Z,60.92
2018-10-16T19:18:22.503Z,60.84
2018-10-16T19:20:54.999Z,61.40
2018-10-16T19:23:27.353Z,61.75
2018-10-16T19:25:59.699Z,61.65
2018-10-16T19:28:32.091Z,61.64
2018-10-16T19:31:04.728Z,61.46
2018-10-16T19:33:37.123Z,61.32
2018-10-16T19:36:09.508Z,61.55
2018-10-16T19:38:41.890Z,61.41
2018-10-16T19:41:14.417Z,61.91
2018-10-16T19:43:46.828Z,62.02
2018-10-16T19:46:19.150Z,62.19
2018-10-16T19:48:51.493Z,62.45
2018-10-16T19:51:23.894Z,62.28
2018-10-16T19:53:56.365Z,62.60
2018-10-16T19:56:28.788Z,63.05
2018-10-16T19:59:01.165Z,63.04
2018-10-16T20:01:33.598Z,63.11
2018-10-16T20:04:05.934Z,63.20
2018-10-16T20:06:38.266Z,63.28
2018-10-16T20:09:11.626Z,63.38
2018-10-16T20:11:44.076Z,63.91
2018-10-16T20:14:16.495Z,64.11
2018-10-16T20:16:49.157Z,64.21
2018-10-16T20:19:21.713Z,64.15
2018-10-16T20:21:54.111Z,64.30
2018-10-16T20:24:26.472Z,64.19
2018-10-16T20:26:58.865Z,64.06
2018-10-16T20:29:31.218Z,64.48
2018-10-16T20:32:03.796Z,64.72
2018-10-16T20:34:36.290Z,64.42
2018-10-16T20:37:08.802Z,64.74
2018-10-16T20:39:41.157Z,65.37
2018-10-16T20:42:13.588Z,65.49
2018-10-16T20:44:45.885Z,65.44
2018-10-16T20:47:18.224Z,65.74
2018-10-16T20:49:50.533Z,66.04
2018-10-16T20:52:22.860Z,66.11
2018-10-16T20:54:55.368Z,66.25
2018-10-16T20:57:27.705Z,66.43
2018-10-16T21:00:00.537Z,66.43
2018-10-16T21:02:32.833Z,66.60
2018-10-16T21:05:06.548Z,67.00
2018-10-16T21:07:38.778Z,66.39
2018-10-16T21:10:11.087Z,66.61
2018-10-16T21:12:43.379Z,66.21
2018-10-16T21:15:15.690Z,66.49
2018-10-16T21:17:47.980Z,66.54
2018-10-16T21:20:20.348Z,66.77
2018-10-16T21:22:52.707Z,66.88
2018-10-16T21:25:25.029Z,66.67
2018-10-16T21:27:57.293Z,67.12
2018-10-16T21:30:29.694Z,67.19
2018-10-16T21:33:02.067Z,67.48
2018-10-16T21:35:34.410Z,67.61
2018-10-16T21:38:06.762Z,67.54
2018-10-16T21:40:39.096Z,67.76
2018-10-16T21:43:11.495Z,68.22
2018-10-16T21:45:44.222Z,67.76
2018-10-16T21:48:16.528Z,68.03
2018-10-16T21:50:48.883Z,67.99
2018-10-16T21:53:21.182Z,67.79
2018-10-16T21:55:53.545Z,67.82
2018-10-16T21:58:25.865Z,67.87
2018-10-16T22:01:03.779Z,67.43
2018-10-16T22:03:36.114Z,68.38
2018-10-16T22:06:08.509Z,68.50
2018-10-16T22:08:40.772Z,68.76
2018-10-16T22:11:13.139Z,68.25
2018-10-16T22:13:45.393Z,68.52
2018-10-16T22:16:17.734Z,68.63
2018-10-16T22:18:50.024Z,68.64
2018-10-16T22:21:22.349Z,69.16
2018-10-16T22:23:54.676Z,69.32
2018-10-16T22:26:27.138Z,68.89
2018-10-16T22:28:59.977Z,69.04
2018-10-16T22:31:33.354Z,68.75
2018-10-16T22:34:06.162Z,68.84
2018-10-16T22:36:38.492Z,69.17
2018-10-16T22:39:11.168Z,69.04
2018-10-16T22:41:43.638Z,69.24
2018-10-16T22:44:16.009Z,69.47
2018-10-16T22:46:48.346Z,69.50
2018-10-16T22:49:20.630Z,69.34
2018-10-16T22:51:53.044Z,69.01
2018-10-16T22:54:25.380Z,69.34
2018-10-16T22:56:57.664Z,69.38
2018-10-16T22:59:30.017Z,69.77
2018-10-16T23:02:02.395Z,69.68
2018-10-16T23:04:35.030Z,69.46
2018-10-16T23:07:07.468Z,70.21
2018-10-16T23:09:39.788Z,69.71
2018-10-16T23:12:12.058Z,69.91
2018-10-16T23:14:44.439Z,69.87
2018-10-16T23:17:16.813Z,69.75
2018-10-16T23:19:49.125Z,70.09
2018-10-16T23:22:21.376Z,70.16
2018-10-16T23:24:53.807Z,70.21
2018-10-16T23:27:26.097Z,69.91
2018-10-16T23:29:58.393Z,70.05
2018-10-16T23:32:30.637Z,70.11
2018-10-16T23:35:02.987Z,70.09
2018-10-16T23:37:35.291Z,70.36
2018-10-16T23:40:07.888Z,70.48
2018-10-16T23:42:40.256Z,70.47
2018-10-16T23:45:12.532Z,70.88
2018-10-16T23:47:44.813Z,70.85
2018-10-16T23:50:17.142Z,70.81
2018-10-16T23:52:49.397Z,70.99
2018-10-16T23:55:21.679Z,70.89
2018-10-16T23:57:53.937Z,70.74
